createdAt,value
2023-05-05T00:03:59.502Z,1018.43
2023-05-05T00:14:07.952Z,1018.42
2023-05-05T00:24:14.749Z,1018.40
2023-05-05T00:34:21.084Z,1018.33
2023-05-05T00:44:28.354Z,1018.23
2023-05-05T00:54:35.500Z,1018.23
2023-05-05T01:04:42.856Z,1018.17
2023-05-05T01:14:49.568Z,1018.09
2023-05-05T01:24:56.934Z,1018.04
2023-05-05T01:35:03.768Z,1018.00
2023-05-05T01:45:10.857Z,1018.10
2023-05-05T01:55:17.802Z,1018.04
2023-05-05T02:05:24.916Z,1017.99
2023-05-05T02:15:31.876Z,1017.98
2023-05-05T02:25:39.059Z,1017.99
2023-05-05T02:35:45.919Z,1017.91
2023-05-05T02:45:53.016Z,1017.84
2023-05-05T02:55:59.966Z,1017.86
2023-05-05T03:06:07.002Z,1017.85
2023-05-05T03:16:14.409Z,1017.89
2023-05-05T03:26:21.984Z,1017.85
2023-05-05T03:36:29.563Z,1017.86
2023-05-05T03:46:36.312Z,1017.91
2023-05-05T03:56:43.177Z,1017.81
2023-05-05T04:06:50.528Z,1017.86
2023-05-05T04:16:57.295Z,1017.76
2023-05-05T04:27:04.254Z,1017.91
2023-05-05T04:37:11.636Z,1017.92
2023-05-05T04:47:18.483Z,1018.01
2023-05-05T04:57:25.544Z,1018.17
2023-05-05T05:07:32.520Z,1018.16
2023-05-05T05:17:39.958Z,1018.21
2023-05-05T05:27:55.286Z,1018.25
2023-05-05T05:38:00.198Z,1018.26
2023-05-05T05:48:07.829Z,1018.25
2023-05-05T05:58:14.975Z,1018.20
2023-05-05T06:08:22.573Z,1018.35
2023-05-05T06:18:32.147Z,1018.30
2023-05-05T06:28:39.241Z,1018.29
2023-05-05T06:38:46.010Z,1018.35
2023-05-05T06:48:52.815Z,1018.32
2023-05-05T06:59:00.245Z,1018.40
2023-05-05T07:09:07.215Z,1018.42
2023-05-05T07:19:14.492Z,1018.41
2023-05-05T07:29:20.951Z,1018.48
2023-05-05T07:39:28.554Z,1018.64
2023-05-05T07:49:35.471Z,1018.68
2023-05-05T07:59:42.726Z,1018.51
2023-05-05T08:09:49.551Z,1018.48
2023-05-05T08:19:56.781Z,1018.43
2023-05-05T08:30:04.106Z,1018.44
2023-05-05T08:40:11.716Z,1018.34
2023-05-05T08:50:19.548Z,1018.37
2023-05-05T09:00:26.705Z,1018.34
2023-05-05T09:10:33.831Z,1018.43
2023-05-05T09:20:41.358Z,1018.34
2023-05-05T09:30:47.751Z,1018.30
2023-05-05T09:40:55.716Z,1018.26
2023-05-05T09:51:03.092Z,1018.32
2023-05-05T10:01:09.880Z,1018.40
2023-05-05T10:11:16.933Z,1018.35
2023-05-05T10:21:24.193Z,1018.27
2023-05-05T10:31:31.748Z,1018.09
2023-05-05T10:41:38.493Z,1018.12
2023-05-05T10:51:46.073Z,1018.16
2023-05-05T11:01:53.459Z,1017.94
2023-05-05T11:12:01.015Z,1017.80
2023-05-05T11:22:08.216Z,1017.76
2023-05-05T11:32:15.867Z,1017.63
2023-05-05T11:42:23.379Z,1017.52
2023-05-05T11:52:30.584Z,1017.39
2023-05-05T12:02:37.460Z,1017.38
2023-05-05T12:12:44.620Z,1017.27
2023-05-05T12:22:51.615Z,1017.22
2023-05-05T12:32:58.748Z,1017.14
2023-05-05T12:43:06.048Z,1017.08
2023-05-05T12:53:12.701Z,1017.00
2023-05-05T13:03:20.017Z,1016.95
2023-05-05T13:13:27.826Z,1016.78
2023-05-05T13:23:35.062Z,1016.64
2023-05-05T13:33:41.941Z,1016.46
2023-05-05T13:43:49.035Z,1016.39
2023-05-05T13:53:55.886Z,1016.22
2023-05-05T14:04:05.421Z,1016.09
2023-05-05T14:14:13.176Z,1015.99
2023-05-05T14:24:20.233Z,1015.93
2023-05-05T14:34:26.948Z,1015.87
2023-05-05T14:44:34.533Z,1015.85
2023-05-05T14:54:41.313Z,1015.81
2023-05-05T15:04:49.761Z,1015.89
2023-05-05T15:14:57.409Z,1015.82
2023-05-05T15:25:05.501Z,1015.64
2023-05-05T15:35:12.216Z,1015.60
2023-05-05T15:45:19.522Z,1015.51
2023-05-05T15:55:26.260Z,1015.54
2023-05-05T16:05:33.498Z,1015.51
2023-05-05T16:15:40.498Z,1015.55
2023-05-05T16:25:47.485Z,1015.50
2023-05-05T16:35:54.939Z,1015.48
2023-05-05T16:46:02.037Z,1015.50
2023-05-05T16:56:09.665Z,1015.42
2023-05-05T17:06:16.823Z,1015.28
2023-05-05T17:16:24.078Z,1015.29
2023-05-05T17:26:31.073Z,1015.27
2023-05-05T17:36:38.026Z,1015.23
2023-05-05T17:46:45.059Z,1015.09
2023-05-05T17:56:53.286Z,1015.09
2023-05-05T18:07:00.192Z,1015.17
2023-05-05T18:17:07.189Z,1015.29
2023-05-05T18:27:14.305Z,1015.35
2023-05-05T18:37:20.869Z,1015.60
2023-05-05T18:47:28.231Z,1015.70
2023-05-05T18:57:35.165Z,1015.71
2023-05-05T19:07:42.661Z,1015.67
2023-05-05T19:17:50.018Z,1015.70
2023-05-05T19:27:57.144Z,1015.73
2023-05-05T19:38:05.735Z,1015.84
2023-05-05T19:48:12.796Z,1015.90
2023-05-05T19:58:19.152Z,1015.90
2023-05-05T20:08:26.745Z,1015.87
2023-05-05T20:18:34.438Z,1015.81
2023-05-05T20:28:44.838Z,1015.88
2023-05-05T20:38:52.519Z,1015.89
2023-05-05T20:49:00.066Z,1015.82
2023-05-05T20:59:06.500Z,1015.88
2023-05-05T21:09:13.647Z,1015.89
2023-05-05T21:19:20.952Z,1015.86
2023-05-05T21:29:27.673Z,1015.85
2023-05-05T21:39:35.257Z,1015.82
2023-05-05T21:49:42.915Z,1015.84
2023-05-05T21:59:50.306Z,1015.85
2023-05-05T22:09:56.799Z,1015.81
2023-05-05T22:20:03.488Z,1016.09
2023-05-05T22:30:10.488Z,1016.08
2023-05-05T22:40:17.919Z,1016.01
2023-05-05T22:50:25.716Z,1015.97
2023-05-05T23:00:33.549Z,1015.86
2023-05-05T23:10:40.513Z,1015.82
2023-05-05T23:20:47.225Z,1015.79
2023-05-05T23:30:54.523Z,1015.68
2023-05-05T23:41:01.375Z,1015.60
2023-05-05T23:51:08.565Z,1015.56
